Time;durP1;ratioP1;P1;durP2;ratioP2;P2;SDS_P1;SDS_P2;PMS_P1;PMS_P2;Temp;Humidity;BMP_temperature;BMP_pressure;BME280_temperature;BME280_humidity;BME280_pressure;Samples;Min_cycle;Max_cycle;Signal;HPM_P1;HPM_P2
2022/08/17 00:01:06;;;;;;;24.25;21.95;;;21.20;99.90;;;;;;5038878;28;20048;-64
2022/08/17 00:03:38;;;;;;;23.30;21.05;;;21.10;99.90;;;;;;5042190;28;20584;-65
2022/08/17 00:06:11;;;;;;;23.45;20.95;;;21.10;99.90;;;;;;5031390;28;20069;-64
2022/08/17 00:08:47;;;;;;;23.90;21.60;;;21.00;99.90;;;;;;5043316;28;20065;-64
2022/08/17 00:11:23;;;;;;;24.38;21.60;;;21.00;99.90;;;;;;5036918;28;20078;-65
2022/08/17 00:13:52;;;;;;;24.02;21.63;;;21.00;99.90;;;;;;5034538;28;20042;-65
2022/08/17 00:16:30;;;;;;;23.58;21.35;;;21.00;99.90;;;;;;5039593;28;20037;-65
2022/08/17 00:18:57;;;;;;;23.48;21.17;;;21.00;99.90;;;;;;5038667;28;20036;-65
2022/08/17 00:21:23;;;;;;;22.80;20.52;;;20.90;99.90;;;;;;5040598;28;20037;-65
2022/08/17 00:23:49;;;;;;;24.02;21.52;;;20.90;99.90;;;;;;5040073;28;20808;-64
2022/08/17 00:26:15;;;;;;;25.33;22.02;;;20.90;99.90;;;;;;5044922;28;20041;-64
2022/08/17 00:28:41;;;;;;;23.58;21.38;;;20.80;99.90;;;;;;5043491;28;20632;-64
2022/08/17 00:31:08;;;;;;;23.50;21.20;;;20.80;99.90;;;;;;5039479;28;20045;-64
2022/08/17 00:33:36;;;;;;;23.83;21.45;;;20.80;99.90;;;;;;5039503;28;20033;-64
2022/08/17 00:36:04;;;;;;;25.38;22.77;;;20.70;99.90;;;;;;5038310;28;21741;-64
2022/08/17 00:38:30;;;;;;;24.70;22.30;;;20.70;99.90;;;;;;5045322;28;20052;-64
2022/08/17 00:40:59;;;;;;;24.58;22.15;;;20.70;99.90;;;;;;5036077;28;20040;-64
2022/08/17 00:43:43;;;;;;;24.42;21.98;;;20.60;99.90;;;;;;5040337;28;20082;-65
2022/08/17 00:46:25;;;;;;;24.92;22.45;;;20.60;99.90;;;;;;5041442;28;20064;-64
2022/08/17 00:48:51;;;;;;;25.40;23.00;;;20.60;99.90;;;;;;5043729;28;20076;-64
2022/08/17 00:51:51;;;;;;;25.00;22.50;;;20.50;99.90;;;;;;5037390;28;20052;-64
2022/08/17 00:54:25;;;;;;;25.02;22.45;;;20.50;99.90;;;;;;5036411;28;20798;-65
2022/08/17 00:56:58;;;;;;;24.52;22.02;;;20.50;99.90;;;;;;5041505;28;20127;-64
2022/08/17 00:59:29;;;;;;;26.02;23.30;;;20.50;99.90;;;;;;5035145;28;20037;-64
2022/08/17 01:01:56;;;;;;;26.17;23.52;;;20.50;99.90;;;;;;5039301;28;20483;-64
2022/08/17 01:04:22;;;;;;;26.92;24.30;;;20.50;99.90;;;;;;5034956;28;20049;-65
2022/08/17 01:06:49;;;;;;;25.23;22.55;;;20.50;99.90;;;;;;5036946;28;20045;-64
2022/08/17 01:09:16;;;;;;;24.45;21.98;;;20.50;99.90;;;;;;5037672;28;20453;-64
2022/08/17 01:11:43;;;;;;;24.92;22.42;;;20.50;99.90;;;;;;5037643;28;20449;-64
2022/08/17 01:14:08;;;;;;;25.10;22.50;;;20.50;99.90;;;;;;5042750;28;20072;-64
2022/08/17 01:16:34;;;;;;;25.13;22.55;;;20.50;99.90;;;;;;5039428;28;20426;-65
2022/08/17 01:19:06;;;;;;;26.25;23.42;;;20.40;99.90;;;;;;5040558;28;20047;-65
2022/08/17 01:21:49;;;;;;;26.77;24.10;;;20.40;99.90;;;;;;5042965;28;20061;-65
2022/08/17 01:24:16;;;;;;;26.15;23.55;;;20.40;99.90;;;;;;5038591;28;20124;-64
2022/08/17 01:26:42;;;;;;;27.92;24.90;;;20.40;99.90;;;;;;5037685;28;20462;-65
2022/08/17 01:29:09;;;;;;;27.77;24.95;;;20.40;99.90;;;;;;5037221;28;20076;-65
2022/08/17 01:31:38;;;;;;;27.67;24.80;;;20.40;99.90;;;;;;5037613;28;20037;-64
2022/08/17 01:34:07;;;;;;;27.08;24.40;;;20.30;99.90;;;;;;5042715;28;20038;-64
2022/08/17 01:36:35;;;;;;;28.20;25.30;;;20.30;99.90;;;;;;5037543;28;20083;-64
2022/08/17 01:39:00;;;;;;;28.48;25.70;;;20.30;99.90;;;;;;5035765;28;20068;-65
2022/08/17 01:41:27;;;;;;;27.77;24.95;;;20.30;99.90;;;;;;5032636;28;20029;-64
2022/08/17 01:44:02;;;;;;;27.13;24.23;;;20.30;99.90;;;;;;5034501;28;20200;-64
2022/08/17 01:46:32;;;;;;;27.15;24.35;;;20.30;99.90;;;;;;5051273;28;20377;-64
2022/08/17 01:48:59;;;;;;;27.45;24.65;;;20.30;99.90;;;;;;5037499;28;20044;-64
2022/08/17 01:51:31;;;;;;;27.83;25.00;;;20.30;99.90;;;;;;5032692;28;20068;-64
2022/08/17 01:54:00;;;;;;;28.02;24.98;;;20.30;99.90;;;;;;5041900;28;20037;-64
2022/08/17 01:56:29;;;;;;;28.63;25.73;;;20.20;99.90;;;;;;5034657;28;20061;-64
2022/08/17 01:58:55;;;;;;;27.70;24.88;;;20.30;99.90;;;;;;5040706;28;20085;-64
2022/08/17 02:01:25;;;;;;;27.15;24.40;;;20.20;99.90;;;;;;5037491;28;20051;-64
2022/08/17 02:03:51;;;;;;;28.13;25.25;;;20.30;99.90;;;;;;5031725;28;20087;-65
2022/08/17 02:06:17;;;;;;;31.77;27.52;;;20.20;99.90;;;;;;5025216;28;20045;-64
2022/08/17 02:08:43;;;;;;;31.00;27.75;;;20.20;99.90;;;;;;5027384;28;20517;-64
2022/08/17 02:11:13;;;;;;;29.88;26.67;;;20.20;99.90;;;;;;5038372;28;20168;-64
2022/08/17 02:13:39;;;;;;;30.77;27.55;;;20.20;99.90;;;;;;5044081;28;20116;-64
2022/08/17 02:16:05;;;;;;;31.38;28.08;;;20.20;99.90;;;;;;5045836;28;20122;-65
2022/08/17 02:18:30;;;;;;;31.33;27.95;;;20.20;99.90;;;;;;5038744;28;20041;-64
2022/08/17 02:20:56;;;;;;;32.25;28.88;;;20.20;99.90;;;;;;5029846;28;20142;-64
2022/08/17 02:23:25;;;;;;;32.45;28.92;;;20.20;99.90;;;;;;5046428;28;20049;-64
2022/08/17 02:25:51;;;;;;;32.85;29.35;;;20.20;99.90;;;;;;5041140;28;20137;-64
2022/08/17 02:28:17;;;;;;;35.72;30.70;;;20.20;99.90;;;;;;5033940;28;20046;-64
2022/08/17 02:30:45;;;;;;;33.95;29.80;;;20.20;99.90;;;;;;5057090;28;20040;-65
2022/08/17 02:33:10;;;;;;;33.90;30.17;;;20.20;99.90;;;;;;5039432;28;20047;-65
2022/08/17 02:35:37;;;;;;;34.85;31.15;;;20.20;99.90;;;;;;5040227;28;20057;-64
2022/08/17 02:38:04;;;;;;;36.13;31.50;;;20.30;99.90;;;;;;5034804;28;20080;-65
2022/08/17 02:40:31;;;;;;;35.80;31.98;;;20.20;99.90;;;;;;5036148;28;20431;-64
2022/08/17 02:42:57;;;;;;;35.95;31.90;;;20.20;99.90;;;;;;5043125;28;20094;-65
2022/08/17 02:45:24;;;;;;;35.45;31.60;;;20.30;99.90;;;;;;5046338;28;20089;-64
2022/08/17 02:47:50;;;;;;;34.92;31.23;;;20.20;99.90;;;;;;5043829;28;20470;-65
2022/08/17 02:50:19;;;;;;;34.28;30.70;;;20.20;99.90;;;;;;5043904;28;20156;-64
2022/08/17 02:52:46;;;;;;;36.13;32.20;;;20.20;99.90;;;;;;5039999;28;20041;-64
2022/08/17 02:55:15;;;;;;;36.00;31.30;;;20.10;99.90;;;;;;5042773;28;20068;-65
2022/08/17 02:57:42;;;;;;;35.53;31.70;;;20.10;99.90;;;;;;5042308;28;20493;-65
2022/08/17 03:00:12;;;;;;;33.72;30.05;;;20.10;99.90;;;;;;5037491;28;20853;-65
2022/08/17 03:02:42;;;;;;;36.90;33.08;;;20.10;99.90;;;;;;5041440;28;20077;-65
2022/08/17 03:05:10;;;;;;;35.85;32.20;;;20.10;99.90;;;;;;5038120;28;20049;-64
2022/08/17 03:07:37;;;;;;;33.63;30.20;;;20.10;99.90;;;;;;5033373;28;20053;-64
2022/08/17 03:10:04;;;;;;;34.47;30.77;;;20.00;99.90;;;;;;5040158;28;20088;-64
2022/08/17 03:12:33;;;;;;;36.50;32.70;;;20.10;99.90;;;;;;5041321;28;20037;-65
2022/08/17 03:15:06;;;;;;;34.63;30.98;;;20.00;99.90;;;;;;5048306;28;20048;-64
2022/08/17 03:17:32;;;;;;;36.17;31.67;;;20.00;99.90;;;;;;5041481;28;20364;-64
2022/08/17 03:19:57;;;;;;;34.97;31.27;;;20.00;99.90;;;;;;5036766;28;20127;-64
2022/08/17 03:22:25;;;;;;;34.28;30.73;;;20.00;99.90;;;;;;5032952;28;20061;-65
2022/08/17 03:24:51;;;;;;;36.72;32.75;;;20.00;99.90;;;;;;5030473;28;20311;-64
2022/08/17 03:27:17;;;;;;;37.53;33.42;;;20.00;99.90;;;;;;5032148;28;20053;-64
2022/08/17 03:29:42;;;;;;;34.67;31.02;;;19.90;99.90;;;;;;5031604;28;20486;-65
2022/08/17 03:32:13;;;;;;;36.80;32.72;;;20.00;99.90;;;;;;5032995;28;20045;-65
2022/08/17 03:34:39;;;;;;;35.65;31.70;;;19.90;99.90;;;;;;5033515;28;20038;-65
2022/08/17 03:37:05;;;;;;;36.75;31.98;;;19.90;99.90;;;;;;5040542;28;20346;-65
2022/08/17 03:39:30;;;;;;;33.90;30.25;;;19.90;99.90;;;;;;5031739;28;20057;-65
2022/08/17 03:42:28;;;;;;;36.17;31.48;;;19.90;99.90;;;;;;5029431;28;20354;-64
2022/08/17 03:44:56;;;;;;;35.97;32.00;;;19.90;99.90;;;;;;5028837;28;20053;-65
2022/08/17 03:58:23;;;;;;;33.72;29.75;;;19.80;99.90;;;;;;5047082;28;20362;-64
2022/08/17 04:00:49;;;;;;;36.80;32.83;;;19.70;99.90;;;;;;5031682;28;20127;-65
2022/08/17 04:03:16;;;;;;;33.65;30.00;;;19.70;99.90;;;;;;5030094;28;20049;-65
2022/08/17 04:05:42;;;;;;;33.45;29.85;;;19.70;99.90;;;;;;5033305;28;20049;-65
2022/08/17 04:08:08;;;;;;;34.78;30.77;;;19.70;99.90;;;;;;5028913;28;20092;-65
2022/08/17 04:10:35;;;;;;;33.70;30.17;;;19.70;99.90;;;;;;5031752;28;20057;-65
2022/08/17 04:13:01;;;;;;;32.45;29.05;;;19.70;99.90;;;;;;5032464;28;20041;-65
2022/08/17 04:15:28;;;;;;;33.50;29.90;;;19.70;99.90;;;;;;5030073;28;20037;-65
2022/08/17 04:17:54;;;;;;;35.72;30.85;;;19.70;99.90;;;;;;5044613;28;20082;-65
2022/08/17 04:20:21;;;;;;;34.03;30.33;;;19.70;99.90;;;;;;5026440;28;20079;-65
2022/08/17 04:23:00;;;;;;;37.85;33.67;;;19.60;99.90;;;;;;5027980;28;20076;-65
2022/08/17 04:25:28;;;;;;;36.13;31.52;;;19.60;99.90;;;;;;5030095;28;20033;-64
2022/08/17 04:27:55;;;;;;;35.65;31.80;;;19.60;99.90;;;;;;5029441;28;20171;-64
2022/08/17 04:30:21;;;;;;;41.28;36.78;;;19.60;99.90;;;;;;5027936;28;20053;-64
2022/08/17 04:33:07;;;;;;;40.88;36.53;;;19.50;99.90;;;;;;5024838;28;20460;-65
2022/08/17 04:35:45;;;;;;;36.00;31.88;;;19.50;99.90;;;;;;5024438;28;20453;-65
2022/08/17 04:38:13;;;;;;;34.25;30.75;;;19.60;99.90;;;;;;5028144;28;20045;-64
2022/08/17 04:43:26;;;;;;;32.75;29.30;;;19.50;99.90;;;;;;5037397;28;20148;-65
2022/08/17 04:45:55;;;;;;;33.33;29.60;;;19.50;99.90;;;;;;5041137;28;20041;-65
2022/08/17 04:48:21;;;;;;;31.45;27.42;;;19.50;99.90;;;;;;5040042;28;20521;-65
2022/08/17 04:50:48;;;;;;;31.90;28.58;;;19.50;99.90;;;;;;5035413;28;20143;-65
2022/08/17 04:53:15;;;;;;;30.75;27.63;;;19.40;99.90;;;;;;5034248;28;20044;-73
2022/08/17 04:55:41;;;;;;;31.35;28.02;;;19.50;99.90;;;;;;5032544;28;20033;-71
2022/08/17 04:58:07;;;;;;;32.65;28.92;;;19.60;99.90;;;;;;5029526;28;20041;-70
2022/08/17 05:00:34;;;;;;;30.98;27.77;;;19.60;99.90;;;;;;5028519;28;20038;-72
2022/08/17 05:03:00;;;;;;;31.73;28.40;;;19.60;99.90;;;;;;5027994;28;20156;-73
2022/08/17 05:05:29;;;;;;;32.92;27.80;;;19.60;99.90;;;;;;5026109;28;20047;-70
2022/08/17 05:07:58;;;;;;;31.63;28.27;;;19.60;99.90;;;;;;5025852;28;20047;-71
2022/08/17 05:10:26;;;;;;;32.72;29.13;;;19.60;99.90;;;;;;5030116;28;20064;-72
2022/08/17 05:13:04;;;;;;;30.55;27.25;;;19.60;99.90;;;;;;5024868;28;20045;-72
2022/08/17 05:15:31;;;;;;;31.98;28.50;;;19.60;99.90;;;;;;5028465;28;20083;-73
2022/08/17 05:17:56;;;;;;;32.97;29.48;;;19.70;99.90;;;;;;5028603;28;20060;-72
2022/08/17 05:20:23;;;;;;;35.58;30.17;;;19.70;99.90;;;;;;5027647;28;20507;-72
2022/08/17 05:22:54;;;;;;;33.03;29.30;;;19.70;99.90;;;;;;5029195;28;20056;-72
2022/08/17 05:25:30;;;;;;;32.45;28.95;;;19.70;99.90;;;;;;5026456;28;20041;-72
2022/08/17 05:27:56;;;;;;;31.80;28.35;;;19.80;99.90;;;;;;5031117;28;20059;-72
2022/08/17 05:30:23;;;;;;;31.15;27.85;;;19.80;99.90;;;;;;5030793;28;20045;-72
2022/08/17 05:32:54;;;;;;;31.92;28.40;;;19.80;99.90;;;;;;5030905;28;20096;-71
2022/08/17 05:35:21;;;;;;;35.40;29.88;;;19.80;99.90;;;;;;5031918;28;20399;-73
2022/08/17 05:37:47;;;;;;;33.03;29.52;;;19.80;99.90;;;;;;5025670;28;20045;-73
2022/08/17 05:40:13;;;;;;;34.72;31.13;;;19.90;99.90;;;;;;5024632;28;20048;-71
2022/08/17 05:42:38;;;;;;;34.28;30.17;;;19.90;99.90;;;;;;5030447;28;20159;-72
2022/08/17 05:45:05;;;;;;;31.80;28.50;;;19.90;99.90;;;;;;5036300;28;20120;-71
2022/08/17 05:47:31;;;;;;;31.77;28.35;;;19.90;99.90;;;;;;5044942;28;20479;-72
2022/08/17 05:49:58;;;;;;;32.05;28.70;;;20.00;99.90;;;;;;5052303;28;20050;-73
2022/08/17 05:52:57;;;;;;;31.60;28.27;;;20.00;99.90;;;;;;5028919;28;20065;-74
2022/08/17 05:55:29;;;;;;;28.60;25.60;;;20.00;99.90;;;;;;5037845;28;20041;-73
2022/08/17 05:58:30;;;;;;;32.33;28.80;;;20.00;99.90;;;;;;5040582;28;20076;-71
2022/08/17 06:01:04;;;;;;;33.38;28.98;;;19.90;99.90;;;;;;5028390;28;20161;-70
2022/08/17 06:03:47;;;;;;;31.60;28.03;;;19.90;99.90;;;;;;5042330;28;20037;-73
2022/08/17 06:06:23;;;;;;;31.35;28.10;;;19.90;99.90;;;;;;5042151;28;20296;-73
2022/08/17 06:08:57;;;;;;;29.80;26.58;;;20.00;99.90;;;;;;5034425;28;20489;-73
2022/08/17 06:11:33;;;;;;;31.50;27.73;;;20.10;99.90;;;;;;5041255;28;20119;-72
2022/08/17 06:14:29;;;;;;;30.85;27.67;;;20.20;99.90;;;;;;5038840;28;20042;-69
2022/08/17 06:17:07;;;;;;;30.73;27.35;;;20.30;99.90;;;;;;5034169;28;20085;-69
2022/08/17 06:19:38;;;;;;;29.55;26.50;;;20.30;99.90;;;;;;5045652;28;20044;-69
2022/08/17 06:22:07;;;;;;;32.13;28.77;;;20.30;99.90;;;;;;5036178;28;20123;-69
2022/08/17 06:24:45;;;;;;;29.92;26.73;;;20.20;99.90;;;;;;5038260;28;20052;-69
2022/08/17 06:27:31;;;;;;;29.70;26.63;;;20.40;99.90;;;;;;5048816;28;20107;-68
2022/08/17 06:30:05;;;;;;;30.75;27.55;;;20.40;99.90;;;;;;5043755;28;20042;-68
2022/08/17 06:32:31;;;;;;;30.33;27.13;;;20.50;99.90;;;;;;5036434;28;20042;-69
2022/08/17 06:35:01;;;;;;;31.95;28.15;;;20.50;99.90;;;;;;5035786;28;20106;-68
2022/08/17 06:37:37;;;;;;;30.40;27.13;;;20.50;99.90;;;;;;5028324;28;20160;-69
2022/08/17 06:40:44;;;;;;;30.35;27.15;;;20.40;99.90;;;;;;5041967;28;20341;-69
2022/08/17 06:43:12;;;;;;;31.05;27.90;;;20.40;99.90;;;;;;5041624;28;20057;-69
2022/08/17 06:45:48;;;;;;;31.70;28.30;;;20.40;99.90;;;;;;5049978;28;20466;-68
2022/08/17 06:48:48;;;;;;;33.47;29.92;;;20.40;99.90;;;;;;5049843;28;20063;-69
2022/08/17 06:51:24;;;;;;;35.25;31.45;;;20.30;99.90;;;;;;5049656;28;20044;-68
2022/08/17 06:54:09;;;;;;;36.45;32.55;;;20.10;99.90;;;;;;5045634;28;20063;-66
2022/08/17 06:56:52;;;;;;;35.50;31.58;;;20.10;99.90;;;;;;5040409;28;20119;-68
2022/08/17 06:59:25;;;;;;;36.47;31.92;;;19.90;99.90;;;;;;5037538;28;20045;-69
2022/08/17 07:01:51;;;;;;;39.25;33.70;;;19.80;99.90;;;;;;5046891;28;20077;-70
2022/08/17 07:04:24;;;;;;;38.15;33.88;;;19.80;99.90;;;;;;5036872;28;20047;-68
2022/08/17 07:06:57;;;;;;;39.15;33.03;;;19.80;99.90;;;;;;5039803;28;20032;-70
2022/08/17 07:09:30;;;;;;;41.88;32.72;;;19.80;99.90;;;;;;5047110;28;20045;-69
2022/08/17 07:12:10;;;;;;;39.70;34.42;;;19.70;99.90;;;;;;5051086;28;20521;-68
2022/08/17 07:14:47;;;;;;;38.90;33.97;;;19.70;99.90;;;;;;5049783;28;20037;-70
2022/08/17 07:17:17;;;;;;;39.60;32.95;;;19.70;99.90;;;;;;5053312;28;20032;-70
2022/08/17 07:19:46;;;;;;;39.33;34.65;;;19.70;99.90;;;;;;5051818;28;20388;-68
2022/08/17 07:22:59;;;;;;;38.00;33.90;;;19.70;99.90;;;;;;5053627;28;20047;-68
2022/08/17 07:25:24;;;;;;;38.35;33.70;;;19.70;99.90;;;;;;5047062;28;20055;-70
2022/08/17 07:27:59;;;;;;;39.08;33.47;;;19.70;99.90;;;;;;5048806;28;20053;-67
2022/08/17 07:30:40;;;;;;;38.63;33.08;;;19.70;99.90;;;;;;5049739;28;20162;-70
2022/08/17 07:33:11;;;;;;;42.05;35.22;;;19.70;99.90;;;;;;5043542;28;20160;-68
2022/08/17 07:35:40;;;;;;;38.83;34.58;;;19.80;99.90;;;;;;5053059;28;20056;-67
2022/08/17 07:38:17;;;;;;;36.53;32.63;;;19.80;99.90;;;;;;5051452;28;20109;-69
2022/08/17 07:41:01;;;;;;;35.28;31.55;;;19.80;99.90;;;;;;5049955;28;20087;-70
2022/08/17 07:43:39;;;;;;;37.15;32.75;;;19.80;99.90;;;;;;5047986;28;20060;-70
2022/08/17 07:49:02;;;;;;;35.90;31.77;;;19.70;99.90;;;;;;5047678;28;20052;-69
2022/08/17 07:51:32;;;;;;;36.58;32.58;;;19.80;99.90;;;;;;5049540;28;20041;-70
2022/08/17 07:54:01;;;;;;;38.10;33.90;;;19.80;99.90;;;;;;5050281;28;20045;-69
2022/08/17 07:56:46;;;;;;;36.00;32.17;;;20.00;99.90;;;;;;5045741;28;20163;-70
2022/08/17 07:59:29;;;;;;;;;;;20.00;99.90;;;;;;5030693;28;20049;-69
2022/08/17 08:02:05;;;;;;;36.80;32.38;;;20.20;99.90;;;;;;5051030;28;20252;-68
2022/08/17 08:04:41;;;;;;;37.55;33.47;;;20.40;99.90;;;;;;5053901;28;20439;-69
2022/08/17 08:07:22;;;;;;;40.47;35.45;;;20.70;99.90;;;;;;5048378;28;20115;-69
2022/08/17 08:10:09;;;;;;;37.33;33.30;;;20.90;99.90;;;;;;5049461;28;20447;-68
2022/08/17 08:12:59;;;;;;;35.65;30.75;;;21.00;99.90;;;;;;5051634;28;20052;-70
2022/08/17 08:15:41;;;;;;;35.15;31.45;;;21.10;99.90;;;;;;5051070;28;20052;-69
2022/08/17 08:18:25;;;;;;;34.67;31.05;;;21.20;99.90;;;;;;5047720;28;20044;-69
2022/08/17 08:20:55;;;;;;;35.70;31.85;;;21.20;99.90;;;;;;5047892;28;20079;-69
2022/08/17 08:23:44;;;;;;;36.17;32.25;;;21.20;99.90;;;;;;5049549;28;20127;-69
2022/08/17 08:26:37;;;;;;;34.53;30.80;;;21.20;99.90;;;;;;5039556;28;20044;-70
2022/08/17 08:29:36;;;;;;;34.35;30.67;;;21.10;99.90;;;;;;5045367;28;20357;-69
2022/08/17 08:32:31;;;;;;;34.33;30.67;;;21.10;99.90;;;;;;5053060;28;20045;-69
2022/08/17 08:35:12;;;;;;;36.65;32.40;;;21.20;99.90;;;;;;5040041;28;20476;-72
2022/08/17 08:38:15;;;;;;;35.97;32.17;;;21.10;99.90;;;;;;5043139;28;20044;-69
2022/08/17 08:40:53;;;;;;;30.85;26.52;;;21.20;99.90;;;;;;5040998;28;20049;-70
2022/08/17 08:43:48;;;;;;;37.20;32.97;;;21.40;99.90;;;;;;5036721;28;20040;-71
2022/08/17 08:46:39;;;;;;;36.55;32.58;;;21.50;99.90;;;;;;5043247;28;20045;-71
2022/08/17 08:49:36;;;;;;;37.53;33.45;;;21.70;99.90;;;;;;5040033;28;20381;-70
2022/08/17 08:52:03;;;;;;;35.60;31.75;;;21.90;99.90;;;;;;5042474;28;20048;-71
2022/08/17 08:54:52;;;;;;;34.92;31.30;;;22.20;99.90;;;;;;5037478;28;20039;-72
2022/08/17 08:57:20;;;;;;;34.15;30.52;;;22.40;99.90;;;;;;5041324;28;20152;-71
2022/08/17 09:00:08;;;;;;;34.90;31.08;;;22.50;99.90;;;;;;5036574;28;20048;-69
2022/08/17 09:02:53;;;;;;;32.17;28.77;;;22.60;99.90;;;;;;5037668;28;20049;-71
2022/08/17 09:05:54;;;;;;;32.88;29.17;;;22.60;99.90;;;;;;5037180;28;20060;-71
2022/08/17 09:08:46;;;;;;;34.38;30.67;;;22.70;99.90;;;;;;5040968;28;20187;-70
2022/08/17 09:11:21;;;;;;;33.97;30.45;;;22.80;99.90;;;;;;5029402;28;20060;-67
2022/08/17 09:14:13;;;;;;;33.10;29.65;;;23.00;99.90;;;;;;5049043;28;20381;-69
2022/08/17 09:17:12;;;;;;;36.17;32.17;;;23.10;99.90;;;;;;5048204;28;20447;-69
2022/08/17 09:19:54;;;;;;;34.78;31.17;;;23.10;99.90;;;;;;5040860;28;20048;-70
2022/08/17 09:22:35;;;;;;;35.20;31.40;;;23.00;99.90;;;;;;5048447;28;20546;-71
2022/08/17 09:25:31;;;;;;;34.30;30.67;;;22.90;99.90;;;;;;5038615;28;20178;-71
2022/08/17 09:28:15;;;;;;;38.05;32.05;;;23.00;99.90;;;;;;5036899;28;20460;-70
2022/08/17 09:30:53;;;;;;;34.35;30.83;;;23.00;99.90;;;;;;5040940;28;20418;-71
2022/08/17 09:33:25;;;;;;;35.72;32.20;;;22.90;99.90;;;;;;5039648;28;20452;-69
2022/08/17 09:36:12;;;;;;;33.65;29.85;;;22.80;99.90;;;;;;5045239;28;20116;-69
2022/08/17 09:39:02;;;;;;;36.50;32.63;;;22.90;99.90;;;;;;5030461;28;20119;-69
2022/08/17 09:41:42;;;;;;;34.05;30.65;;;23.00;99.90;;;;;;5039109;28;20129;-72
2022/08/17 09:44:38;;;;;;;34.55;31.05;;;23.00;99.90;;;;;;5040596;28;20045;-70
2022/08/17 09:47:16;;;;;;;34.53;31.02;;;23.00;99.90;;;;;;5039515;28;20310;-67
2022/08/17 09:49:52;;;;;;;35.80;32.20;;;23.10;99.90;;;;;;5030030;28;20033;-68
2022/08/17 09:52:24;;;;;;;34.38;30.75;;;23.10;99.90;;;;;;5039438;28;20044;-68
2022/08/17 09:54:52;;;;;;;36.97;33.20;;;23.20;99.90;;;;;;5035026;28;20067;-68
2022/08/17 09:57:39;;;;;;;36.80;33.13;;;23.20;99.90;;;;;;5040190;28;20045;-69
2022/08/17 10:00:11;;;;;;;37.33;33.53;;;23.30;99.90;;;;;;5037979;28;20128;-67
2022/08/17 10:03:15;;;;;;;37.30;33.55;;;23.20;99.90;;;;;;5033638;28;20042;-68
2022/08/17 10:06:32;;;;;;;37.47;33.67;;;23.30;99.90;;;;;;5040144;28;20037;-67
2022/08/17 10:09:07;;;;;;;38.15;33.75;;;23.40;99.90;;;;;;5006242;28;20103;-65
2022/08/17 10:15:00;;;;;;;39.28;35.25;;;23.40;99.90;;;;;;5035736;28;20095;-66
2022/08/17 10:17:44;;;;;;;39.03;34.88;;;23.50;99.90;;;;;;5034141;28;20500;-66
2022/08/17 10:20:13;;;;;;;39.10;35.03;;;23.40;99.90;;;;;;5027111;28;20048;-67
2022/08/17 10:28:25;;;;;;;39.30;35.10;;;23.60;99.90;;;;;;5031006;28;20049;-65
2022/08/17 10:30:55;;;;;;;38.78;34.78;;;23.60;99.90;;;;;;5042426;28;20068;-65
2022/08/17 10:33:26;;;;;;;39.80;35.47;;;23.80;99.90;;;;;;5049331;28;20060;-65
2022/08/17 10:36:01;;;;;;;39.45;35.35;;;24.00;99.90;;;;;;5044387;28;20721;-65
2022/08/17 10:38:44;;;;;;;39.83;35.60;;;24.10;99.90;;;;;;5047350;28;20075;-64
2022/08/17 10:41:25;;;;;;;37.83;33.90;;;24.30;99.90;;;;;;5038161;28;20119;-64
2022/08/17 10:44:20;;;;;;;37.17;33.28;;;24.50;99.90;;;;;;5035976;28;20055;-64
2022/08/17 10:46:50;;;;;;;;;;;24.70;99.90;;;;;;5044432;28;20068;-64
2022/08/17 10:49:16;;;;;;;34.58;31.10;;;24.90;99.90;;;;;;5052026;28;19924;-64
2022/08/17 10:51:44;;;;;;;35.65;32.05;;;25.20;99.90;;;;;;5048792;28;20329;-65
2022/08/17 10:54:37;;;;;;;36.58;32.80;;;25.10;99.90;;;;;;5046202;28;20605;-65
2022/08/17 10:57:25;;;;;;;35.72;31.77;;;25.00;99.90;;;;;;5039008;28;20428;-65
2022/08/17 10:59:52;;;;;;;36.95;33.35;;;24.80;99.90;;;;;;5036319;28;20128;-65
2022/08/17 11:02:21;;;;;;;35.03;31.40;;;24.80;99.90;;;;;;5032661;28;20048;-65
2022/08/17 11:05:06;;;;;;;32.15;28.85;;;24.70;99.90;;;;;;5031205;28;20077;-65
2022/08/17 11:08:09;;;;;;;33.13;29.73;;;24.80;99.90;;;;;;5039447;28;20093;-65
2022/08/17 11:11:00;;;;;;;31.85;28.73;;;24.80;99.90;;;;;;5035928;28;20132;-65
2022/08/17 11:13:46;;;;;;;32.75;29.40;;;25.00;99.90;;;;;;5039612;28;20053;-65
2022/08/17 11:16:36;;;;;;;31.92;28.58;;;25.00;99.90;;;;;;5031246;28;20045;-65
2022/08/17 11:19:46;;;;;;;29.50;26.52;;;25.10;99.90;;;;;;5048568;28;20544;-66
2022/08/17 11:22:32;;;;;;;32.80;29.58;;;25.10;99.90;;;;;;5022617;28;20113;-66
2022/08/17 11:25:15;;;;;;;31.85;28.73;;;25.10;99.90;;;;;;5049888;28;20130;-66
2022/08/17 11:27:42;;;;;;;31.02;27.92;;;25.20;99.90;;;;;;5038884;28;20045;-66
2022/08/17 11:30:34;;;;;;;30.23;27.23;;;25.20;99.90;;;;;;5042969;28;20105;-65
2022/08/17 11:33:28;;;;;;;30.45;27.25;;;25.10;99.90;;;;;;5045001;28;20055;-65
2022/08/17 11:36:21;;;;;;;30.13;27.13;;;25.20;99.90;;;;;;5032601;28;20045;-65
2022/08/17 11:39:01;;;;;;;26.17;23.42;;;25.20;99.90;;;;;;5046376;28;20049;-65
2022/08/17 11:41:51;;;;;;;28.40;25.60;;;25.30;99.90;;;;;;5043199;28;20068;-65
2022/08/17 11:45:08;;;;;;;27.95;25.27;;;25.20;99.90;;;;;;5047022;28;20517;-65
2022/08/17 11:53:59;;;;;;;24.25;21.75;;;24.90;99.90;;;;;;5044192;28;20373;-65
2022/08/17 11:56:49;;;;;;;24.55;22.05;;;24.90;99.90;;;;;;5045407;28;20053;-65
2022/08/17 11:59:38;;;;;;;24.42;22.02;;;24.90;99.90;;;;;;5043476;28;20052;-64
2022/08/17 12:02:18;;;;;;;24.17;21.58;;;24.90;99.90;;;;;;5033675;28;20049;-64
2022/08/17 12:05:15;;;;;;;26.38;21.45;;;25.00;99.90;;;;;;5037432;28;20041;-65
2022/08/17 12:07:50;;;;;;;23.40;21.02;;;25.00;99.90;;;;;;5032987;28;20164;-64
2022/08/17 12:10:20;;;;;;;24.17;21.60;;;25.00;99.90;;;;;;5045519;28;20107;-66
2022/08/17 12:12:48;;;;;;;23.77;21.02;;;25.00;99.90;;;;;;5042618;28;20106;-66
2022/08/17 12:15:24;;;;;;;24.05;21.63;;;24.90;99.90;;;;;;5037541;28;20045;-66
2022/08/17 12:17:54;;;;;;;23.73;21.33;;;25.00;99.90;;;;;;5036286;28;20045;-66
2022/08/17 12:20:42;;;;;;;24.90;22.30;;;25.10;99.90;;;;;;5045518;28;20037;-66
2022/08/17 12:23:33;;;;;;;26.23;23.63;;;25.00;99.90;;;;;;5045515;28;20083;-65
2022/08/17 12:26:08;;;;;;;26.65;23.95;;;25.00;99.90;;;;;;5053200;28;20048;-65
2022/08/17 12:28:38;;;;;;;25.80;22.98;;;25.00;99.90;;;;;;5046405;28;20479;-65
2022/08/17 12:31:10;;;;;;;28.13;25.05;;;25.20;99.90;;;;;;5054190;28;20060;-65
2022/08/17 12:33:42;;;;;;;27.02;24.13;;;25.20;99.90;;;;;;5049408;28;20213;-66
2022/08/17 12:36:14;;;;;;;26.15;23.45;;;25.20;99.90;;;;;;5052576;28;20041;-66
2022/08/17 12:38:47;;;;;;;27.63;24.75;;;25.20;99.90;;;;;;5052843;28;20064;-65
2022/08/17 12:41:29;;;;;;;26.73;23.98;;;25.30;99.90;;;;;;5049595;28;20045;-65
2022/08/17 12:44:03;;;;;;;26.67;23.85;;;25.30;99.90;;;;;;5045970;28;20404;-66
2022/08/17 12:47:08;;;;;;;24.65;22.05;;;25.40;99.90;;;;;;5049763;28;20075;-66
2022/08/17 12:49:38;;;;;;;;;;;25.40;99.90;;;;;;5043335;28;20064;-66
2022/08/17 12:52:11;;;;;;;25.20;22.60;;;25.30;99.90;;;;;;5048816;28;19920;-71
2022/08/17 12:54:48;;;;;;;23.38;20.85;;;25.30;99.90;;;;;;5040369;28;20041;-70
2022/08/17 12:57:37;;;;;;;22.02;19.67;;;25.30;99.90;;;;;;5039442;28;20083;-70
2022/08/17 13:00:19;;;;;;;22.70;20.50;;;25.20;99.90;;;;;;5034335;28;20130;-71
2022/08/17 13:02:49;;;;;;;23.02;20.83;;;25.10;99.90;;;;;;5038634;28;20091;-71
2022/08/17 13:05:37;;;;;;;24.55;22.15;;;25.00;99.90;;;;;;5037155;28;20109;-70
2022/08/17 13:08:18;;;;;;;23.63;21.13;;;24.80;99.90;;;;;;5038619;28;20072;-71
2022/08/17 13:11:04;;;;;;;24.35;21.75;;;24.60;99.90;;;;;;5034745;28;20048;-71
2022/08/17 13:13:33;;;;;;;25.33;22.60;;;24.50;99.90;;;;;;5038958;28;20723;-70
2022/08/17 13:16:05;;;;;;;24.67;21.60;;;24.30;99.90;;;;;;5042188;28;20049;-69
2022/08/17 13:18:43;;;;;;;25.45;22.75;;;24.20;99.90;;;;;;5040771;28;20098;-70
2022/08/17 13:21:26;;;;;;;25.65;23.05;;;24.10;99.90;;;;;;5048880;28;20098;-69
2022/08/17 13:24:26;;;;;;;25.25;22.55;;;24.00;99.90;;;;;;5039578;28;20396;-70
2022/08/17 13:27:00;;;;;;;25.30;22.73;;;23.90;99.90;;;;;;5040270;28;20431;-70
2022/08/17 13:29:52;;;;;;;;;;;23.80;99.90;;;;;;5042130;28;20534;-70
2022/08/17 13:32:34;;;;;;;26.33;23.20;;;23.70;99.90;;;;;;5033187;28;19928;-69
2022/08/17 13:35:05;;;;;;;29.05;24.27;;;23.50;99.90;;;;;;5048196;28;20094;-69
2022/08/17 13:37:34;;;;;;;26.90;23.73;;;23.50;99.90;;;;;;5044900;28;20588;-68
2022/08/17 13:40:09;;;;;;;26.25;23.17;;;23.40;99.90;;;;;;5043512;28;20124;-68
2022/08/17 13:42:40;;;;;;;25.83;23.05;;;23.40;99.90;;;;;;5031434;28;20065;-69